createdAt,value
2018-02-25T00:00:54.340Z,2.00
2018-02-25T00:03:21.817Z,1.90
2018-02-25T00:05:49.270Z,1.57
2018-02-25T00:08:16.771Z,1.40
2018-02-25T00:10:44.244Z,2.60
2018-02-25T00:13:12.579Z,1.70
2018-02-25T00:15:40.043Z,1.80
2018-02-25T00:18:07.524Z,1.30
2018-02-25T00:20:34.987Z,2.03
2018-02-25T00:23:02.478Z,1.50
2018-02-25T00:25:29.968Z,1.57
2018-02-25T00:27:57.547Z,1.40
2018-02-25T00:30:25.003Z,1.73
2018-02-25T00:32:52.484Z,1.50
2018-02-25T00:35:20.744Z,1.37
2018-02-25T00:37:48.238Z,1.55
2018-02-25T00:40:15.729Z,1.80
2018-02-25T00:42:43.207Z,1.23
2018-02-25T00:45:10.724Z,1.40
2018-02-25T00:47:38.820Z,1.30
2018-02-25T00:50:06.299Z,1.60
2018-02-25T00:52:33.768Z,1.50
2018-02-25T00:55:02.013Z,1.43
2018-02-25T00:57:30.178Z,1.30
2018-02-25T00:59:57.664Z,2.07
2018-02-25T01:02:25.147Z,1.53
2018-02-25T01:04:53.451Z,1.50
2018-02-25T01:07:20.908Z,1.57
2018-02-25T01:09:48.376Z,1.83
2018-02-25T01:12:15.847Z,1.50
2018-02-25T01:14:43.319Z,1.50
2018-02-25T01:17:10.794Z,1.60
2018-02-25T01:19:39.031Z,2.07
2018-02-25T01:22:06.498Z,1.63
2018-02-25T01:24:33.981Z,1.80
2018-02-25T01:27:02.533Z,1.53
2018-02-25T01:29:29.988Z,1.60
2018-02-25T01:31:57.479Z,1.95
2018-02-25T01:34:25.732Z,1.58
2018-02-25T01:36:53.196Z,1.70
2018-02-25T01:39:20.671Z,1.73
2018-02-25T01:41:48.977Z,1.60
2018-02-25T01:44:16.444Z,1.85
2018-02-25T01:46:43.943Z,1.73
2018-02-25T01:49:11.402Z,1.87
2018-02-25T01:51:38.883Z,1.70
2018-02-25T01:54:07.137Z,1.40
2018-02-25T01:56:34.613Z,1.50
2018-02-25T01:59:02.842Z,1.87
2018-02-25T02:01:30.314Z,2.33
2018-02-25T02:03:58.567Z,1.50
2018-02-25T02:06:26.054Z,2.05
2018-02-25T02:08:53.530Z,1.60
2018-02-25T02:11:21.780Z,1.58
2018-02-25T02:13:49.246Z,1.63
2018-02-25T02:16:17.172Z,1.80
2018-02-25T02:18:44.634Z,1.85
2018-02-25T02:21:12.113Z,1.50
2018-02-25T02:23:39.580Z,1.55
2018-02-25T02:26:07.048Z,1.45
2018-02-25T02:28:35.296Z,1.85
2018-02-25T02:31:02.773Z,1.77
2018-02-25T02:33:30.283Z,1.77
2018-02-25T02:35:57.758Z,2.00
2018-02-25T02:38:25.227Z,2.33
2018-02-25T02:40:52.714Z,1.98
2018-02-25T02:43:20.964Z,2.05
2018-02-25T02:45:48.443Z,1.62
2018-02-25T02:48:17.295Z,2.20
2018-02-25T02:50:44.838Z,1.80
2018-02-25T02:53:12.319Z,1.70
2018-02-25T02:55:39.787Z,2.25
2018-02-25T02:58:07.286Z,2.28
2018-02-25T03:00:34.786Z,1.95
2018-02-25T03:03:03.027Z,2.28
2018-02-25T03:05:30.503Z,1.45
2018-02-25T03:07:57.979Z,2.47
2018-02-25T03:10:25.489Z,2.00
2018-02-25T03:12:52.951Z,2.15
2018-02-25T03:15:20.426Z,2.03
2018-02-25T03:17:47.906Z,1.73
2018-02-25T03:20:15.367Z,1.98
2018-02-25T03:22:42.846Z,2.03
2018-02-25T03:25:11.088Z,1.80
2018-02-25T03:27:38.555Z,1.90
2018-02-25T03:30:06.055Z,2.05
2018-02-25T03:32:34.303Z,2.12
2018-02-25T03:35:01.783Z,1.87
2018-02-25T03:37:29.271Z,1.85
2018-02-25T03:39:56.748Z,1.62
2018-02-25T03:42:24.227Z,2.50
2018-02-25T03:44:51.706Z,2.35
2018-02-25T03:47:19.946Z,2.08
2018-02-25T03:49:47.443Z,2.37
2018-02-25T03:52:15.682Z,2.28
2018-02-25T03:54:43.151Z,1.98
2018-02-25T03:57:10.622Z,2.00
2018-02-25T03:59:38.858Z,2.30
2018-02-25T04:02:06.397Z,2.50
2018-02-25T04:04:33.859Z,2.25
2018-02-25T04:07:01.318Z,2.30
2018-02-25T04:09:28.869Z,2.58
2018-02-25T04:11:56.335Z,2.22
2018-02-25T04:14:23.810Z,1.73
2018-02-25T04:16:51.296Z,2.50
2018-02-25T04:19:19.568Z,2.55
2018-02-25T04:21:47.806Z,2.10
2018-02-25T04:24:15.274Z,1.70
2018-02-25T04:26:42.747Z,2.25
2018-02-25T04:29:10.223Z,2.30
2018-02-25T04:31:38.452Z,2.12
2018-02-25T04:34:05.931Z,2.10
2018-02-25T04:36:33.399Z,2.40
2018-02-25T04:39:00.867Z,1.70
2018-02-25T04:41:29.109Z,2.00
2018-02-25T04:43:57.212Z,2.90
2018-02-25T04:46:25.434Z,1.90
2018-02-25T04:48:52.915Z,2.22
2018-02-25T04:51:20.387Z,2.10
2018-02-25T04:53:48.655Z,2.05
2018-02-25T04:56:16.131Z,2.45
2018-02-25T04:58:43.584Z,2.60
2018-02-25T05:01:11.047Z,2.45
2018-02-25T05:03:39.306Z,2.30
2018-02-25T05:06:06.766Z,1.80
2018-02-25T05:08:34.239Z,2.03
2018-02-25T05:11:02.482Z,2.42
2018-02-25T05:13:30.334Z,2.60
2018-02-25T05:15:57.803Z,2.42
2018-02-25T05:18:25.270Z,2.45
2018-02-25T05:20:52.741Z,1.90
2018-02-25T05:23:21.008Z,2.65
2018-02-25T05:25:48.477Z,2.53
2018-02-25T05:28:16.745Z,2.65
2018-02-25T05:30:44.213Z,2.30
2018-02-25T05:33:12.434Z,2.45
2018-02-25T05:35:39.904Z,2.65
2018-02-25T05:38:07.366Z,2.58
2018-02-25T05:40:34.846Z,2.25
2018-02-25T05:43:02.312Z,2.65
2018-02-25T05:45:30.538Z,2.70
2018-02-25T05:47:58.019Z,1.95
2018-02-25T05:50:25.911Z,2.60
2018-02-25T05:52:54.191Z,2.25
2018-02-25T05:55:22.434Z,2.35
2018-02-25T05:57:50.838Z,2.70
2018-02-25T06:00:19.075Z,3.28
2018-02-25T06:02:46.536Z,2.12
2018-02-25T06:05:14.023Z,3.37
2018-02-25T06:07:42.259Z,2.10
2018-02-25T06:10:09.731Z,2.33
2018-02-25T06:12:37.214Z,2.97
2018-02-25T06:15:05.456Z,2.62
2018-02-25T06:17:32.931Z,2.67
2018-02-25T06:20:00.395Z,2.37
2018-02-25T06:22:27.867Z,2.30
2018-02-25T06:24:56.099Z,2.00
2018-02-25T06:27:23.559Z,2.45
2018-02-25T06:29:51.045Z,3.15
2018-02-25T06:32:18.501Z,2.70
2018-02-25T06:34:45.984Z,2.20
2018-02-25T06:37:13.467Z,2.75
2018-02-25T06:39:40.943Z,2.67
2018-02-25T06:42:08.416Z,2.90
2018-02-25T06:44:35.960Z,2.70
2018-02-25T06:47:03.424Z,2.50
2018-02-25T06:49:30.883Z,2.90
2018-02-25T06:51:58.351Z,2.37
2018-02-25T06:54:25.823Z,2.62
2018-02-25T06:56:54.074Z,2.42
2018-02-25T06:59:21.530Z,3.03
2018-02-25T07:01:49.419Z,2.50
2018-02-25T07:04:16.887Z,3.05
2018-02-25T07:06:45.119Z,3.67
2018-02-25T07:09:12.610Z,3.40
2018-02-25T07:11:40.846Z,3.00
2018-02-25T07:14:08.323Z,2.40
2018-02-25T07:16:36.583Z,3.25
2018-02-25T07:19:04.043Z,2.72
2018-02-25T07:21:31.518Z,2.53
2018-02-25T07:23:59.003Z,3.30
2018-02-25T07:26:27.280Z,2.95
2018-02-25T07:28:55.513Z,2.70
2018-02-25T07:31:22.991Z,3.00
2018-02-25T07:33:51.218Z,3.00
2018-02-25T07:36:18.689Z,2.35
2018-02-25T07:38:46.158Z,2.75
2018-02-25T07:41:13.628Z,3.30
2018-02-25T07:43:41.087Z,2.75
2018-02-25T07:46:08.567Z,2.30
2018-02-25T07:48:36.072Z,2.85
2018-02-25T07:51:03.543Z,2.80
2018-02-25T07:53:31.006Z,2.60
2018-02-25T07:55:58.496Z,2.17
2018-02-25T07:58:26.760Z,3.08
2018-02-25T08:00:55.011Z,2.90
2018-02-25T08:03:22.490Z,2.30
2018-02-25T08:05:50.737Z,2.37
2018-02-25T08:08:18.219Z,2.35
2018-02-25T08:10:46.447Z,2.90
2018-02-25T08:13:13.923Z,2.87
2018-02-25T08:15:41.394Z,2.60
2018-02-25T08:18:09.192Z,3.50
2018-02-25T08:20:36.879Z,3.45
2018-02-25T08:23:04.352Z,4.07
2018-02-25T08:25:31.844Z,2.80
2018-02-25T08:28:00.099Z,2.83
2018-02-25T08:30:27.553Z,2.75
2018-02-25T08:32:55.035Z,2.30
2018-02-25T08:35:22.575Z,2.50
2018-02-25T08:37:50.056Z,2.45
2018-02-25T08:40:17.502Z,2.85
2018-02-25T08:42:44.971Z,3.10
2018-02-25T08:45:13.215Z,2.50
2018-02-25T08:47:40.693Z,3.80
2018-02-25T08:50:08.975Z,2.20
2018-02-25T08:52:37.216Z,2.55
2018-02-25T08:55:04.704Z,1.95
2018-02-25T08:57:32.189Z,2.23
2018-02-25T09:00:00.407Z,2.50
2018-02-25T09:02:27.936Z,2.57
2018-02-25T09:04:55.394Z,2.50
2018-02-25T09:07:22.859Z,2.03
2018-02-25T09:09:51.104Z,2.73
2018-02-25T09:12:18.575Z,2.07
2018-02-25T09:14:46.049Z,2.50
2018-02-25T09:17:13.564Z,1.90
2018-02-25T09:19:41.796Z,2.63
2018-02-25T09:22:09.307Z,2.60
2018-02-25T09:24:36.867Z,2.33
2018-02-25T09:27:05.083Z,3.03
2018-02-25T09:29:32.556Z,2.43
2018-02-25T09:32:00.044Z,2.80
2018-02-25T09:34:27.527Z,2.40
2018-02-25T09:36:54.993Z,2.60
2018-02-25T09:39:22.483Z,2.87
2018-02-25T09:41:50.883Z,2.60
2018-02-25T09:44:18.339Z,2.43
2018-02-25T09:46:45.824Z,3.43
2018-02-25T09:49:13.302Z,3.03
2018-02-25T09:51:40.762Z,2.40
2018-02-25T09:54:08.440Z,2.30
2018-02-25T09:56:35.914Z,2.70
2018-02-25T09:59:03.378Z,2.93
2018-02-25T10:01:30.838Z,2.67
2018-02-25T10:03:58.310Z,2.00
2018-02-25T10:06:26.540Z,2.80
2018-02-25T10:08:54.035Z,1.77
2018-02-25T10:11:21.535Z,1.73
2018-02-25T10:13:49.546Z,2.20
2018-02-25T10:16:17.037Z,2.10
2018-02-25T10:18:44.489Z,2.20
2018-02-25T10:21:12.722Z,3.13
2018-02-25T10:23:40.174Z,2.50
2018-02-25T10:26:07.647Z,2.67
2018-02-25T10:28:35.192Z,2.40
2018-02-25T10:31:02.643Z,2.93
2018-02-25T10:33:30.104Z,2.57
2018-02-25T10:35:57.578Z,2.37
2018-02-25T10:38:25.039Z,2.90
2018-02-25T10:40:52.514Z,2.67
2018-02-25T10:43:20.775Z,2.43
2018-02-25T10:45:49.036Z,1.90
2018-02-25T10:48:16.504Z,2.60
2018-02-25T10:50:44.024Z,2.53
2018-02-25T10:53:11.475Z,2.67
2018-02-25T10:55:38.938Z,2.47
2018-02-25T10:58:06.407Z,2.80
2018-02-25T11:00:36.855Z,2.20
2018-02-25T11:03:05.107Z,2.43
2018-02-25T11:05:32.586Z,4.17
2018-02-25T11:08:00.045Z,2.40
2018-02-25T11:10:27.505Z,2.77
2018-02-25T11:12:54.972Z,1.77
2018-02-25T11:15:22.488Z,1.97
2018-02-25T11:17:49.972Z,2.00
2018-02-25T11:20:17.451Z,2.17
2018-02-25T11:22:45.666Z,2.07
2018-02-25T11:25:13.131Z,2.60
2018-02-25T11:27:40.597Z,2.00
2018-02-25T11:30:08.079Z,2.13
2018-02-25T11:32:35.531Z,2.03
2018-02-25T11:35:03.004Z,2.20
2018-02-25T11:37:31.243Z,2.27
2018-02-25T11:39:58.727Z,2.20
2018-02-25T11:42:26.229Z,2.00
2018-02-25T11:44:53.723Z,1.73
2018-02-25T11:47:21.272Z,2.30
2018-02-25T11:49:48.879Z,2.20
2018-02-25T11:52:17.113Z,2.20
2018-02-25T11:54:44.580Z,1.87
2018-02-25T11:57:12.032Z,2.13
2018-02-25T11:59:39.499Z,1.70
2018-02-25T12:02:06.971Z,1.53
2018-02-25T12:04:35.200Z,2.00
2018-02-25T12:07:02.721Z,2.70
2018-02-25T12:09:30.970Z,1.47
2018-02-25T12:11:58.438Z,1.50
2018-02-25T12:14:26.724Z,2.03
2018-02-25T12:16:54.219Z,2.00
2018-02-25T12:19:21.980Z,2.03
2018-02-25T12:21:49.452Z,4.43
2018-02-25T12:24:16.915Z,5.10
2018-02-25T12:26:44.390Z,3.73
2018-02-25T12:29:11.843Z,2.00
2018-02-25T12:31:39.299Z,2.20
2018-02-25T12:34:06.768Z,2.27
2018-02-25T12:36:34.230Z,2.10
2018-02-25T12:39:01.716Z,1.30
2018-02-25T12:41:29.944Z,1.80
2018-02-25T12:43:57.399Z,2.00
2018-02-25T12:46:24.874Z,2.17
2018-02-25T12:48:53.110Z,1.50
2018-02-25T12:51:20.576Z,1.57
2018-02-25T12:53:48.052Z,1.70
2018-02-25T12:56:15.514Z,1.47
2018-02-25T12:58:42.996Z,1.47
2018-02-25T13:01:10.452Z,2.20
2018-02-25T13:03:37.911Z,1.70
2018-02-25T13:06:05.438Z,1.77
2018-02-25T13:08:32.940Z,1.93
2018-02-25T13:11:00.352Z,2.00
2018-02-25T15:36:47.909Z,1.90
2018-02-25T15:39:15.374Z,2.10
2018-02-25T15:41:42.842Z,1.80
2018-02-25T15:44:10.328Z,1.80
2018-02-25T15:46:42.974Z,2.00
2018-02-25T15:49:10.456Z,2.40
2018-02-25T15:51:38.787Z,1.87
2018-02-25T15:54:07.008Z,1.50
2018-02-25T15:56:35.290Z,1.47
2018-02-25T15:59:06.378Z,1.67
2018-02-25T16:01:33.846Z,1.43
2018-02-25T16:04:01.314Z,1.97
2018-02-25T16:06:28.795Z,1.90
2018-02-25T16:08:56.270Z,2.00
2018-02-25T16:11:24.554Z,1.90
2018-02-25T16:13:52.768Z,1.70
2018-02-25T16:16:20.246Z,1.43
2018-02-25T16:18:47.707Z,1.87
2018-02-25T16:21:15.200Z,2.20
2018-02-25T16:23:42.723Z,2.03
2018-02-25T16:26:10.169Z,1.97
2018-02-25T16:28:37.646Z,1.93
2018-02-25T16:31:05.915Z,2.33
2018-02-25T16:33:33.382Z,1.83
2018-02-25T16:36:01.622Z,2.03
2018-02-25T16:38:29.087Z,1.87
2018-02-25T16:40:56.580Z,2.57
2018-02-25T16:43:24.815Z,1.70
2018-02-25T16:45:52.446Z,1.90
2018-02-25T16:48:19.930Z,2.60
2018-02-25T16:50:47.405Z,2.60
2018-02-25T16:53:14.918Z,2.03
2018-02-25T16:55:42.331Z,2.40
2018-02-25T16:58:10.577Z,1.87
2018-02-25T17:00:38.071Z,2.43
2018-02-25T17:03:05.931Z,2.17
2018-02-25T17:05:34.199Z,2.13
2018-02-25T17:08:01.676Z,1.80
2018-02-25T17:10:29.910Z,1.77
2018-02-25T17:12:57.379Z,1.90
2018-02-25T17:15:24.895Z,1.93
2018-02-25T17:17:53.107Z,2.60
2018-02-25T17:20:20.581Z,2.30
2018-02-25T17:22:48.848Z,2.07
2018-02-25T17:25:16.323Z,1.83
2018-02-25T17:27:44.565Z,2.57
2018-02-25T17:30:12.043Z,2.20
2018-02-25T17:32:40.278Z,2.10
2018-02-25T17:35:07.771Z,2.07
2018-02-25T17:37:35.253Z,1.70
2018-02-25T17:40:03.553Z,2.40
2018-02-25T17:42:31.035Z,2.20
2018-02-25T17:45:00.830Z,2.03
2018-02-25T17:47:28.315Z,1.80
2018-02-25T17:49:55.787Z,2.90
2018-02-25T17:52:24.024Z,2.50
2018-02-25T17:54:51.499Z,2.37
2018-02-25T17:57:19.182Z,1.97
2018-02-25T17:59:47.458Z,2.10
2018-02-25T18:02:14.930Z,3.37
2018-02-25T18:04:43.203Z,3.70
2018-02-25T18:07:11.452Z,3.10
2018-02-25T18:09:38.953Z,2.40
2018-02-25T18:12:06.436Z,3.13
2018-02-25T18:14:33.915Z,3.00
2018-02-25T18:17:01.392Z,3.43
2018-02-25T18:19:28.907Z,2.43
2018-02-25T18:21:56.349Z,2.50
2018-02-25T18:24:23.891Z,2.30
2018-02-25T18:26:52.132Z,2.70
2018-02-25T18:29:19.590Z,2.30
2018-02-25T18:31:47.067Z,2.60
2018-02-25T18:34:15.301Z,2.70
2018-02-25T18:36:43.702Z,2.70
2018-02-25T18:39:11.166Z,2.47
2018-02-25T18:41:39.402Z,2.57
2018-02-25T18:44:06.927Z,2.03
2018-02-25T18:46:34.432Z,2.30
2018-02-25T18:49:01.903Z,2.33
2018-02-25T18:51:30.216Z,2.90
2018-02-25T18:53:57.699Z,1.90
2018-02-25T18:56:25.166Z,2.27
2018-02-25T18:58:52.655Z,2.03
2018-02-25T19:01:20.159Z,2.17
2018-02-25T19:03:47.632Z,2.23
2018-02-25T19:06:15.128Z,2.00
2018-02-25T19:08:42.610Z,1.67
2018-02-25T19:11:10.882Z,2.40
2018-02-25T19:13:39.409Z,2.53
2018-02-25T19:16:06.887Z,1.90
2018-02-25T19:18:34.355Z,1.93
2018-02-25T19:21:01.835Z,2.27
2018-02-25T19:23:30.096Z,1.97
2018-02-25T19:25:58.337Z,2.10
2018-02-25T19:28:25.826Z,3.00
2018-02-25T19:30:54.086Z,2.90
2018-02-25T19:33:21.554Z,2.60
2018-02-25T19:35:54.779Z,2.10
2018-02-25T19:38:27.899Z,2.03
2018-02-25T19:41:01.216Z,2.27
2018-02-25T19:43:28.680Z,2.00
2018-02-25T19:45:56.155Z,2.13
2018-02-25T19:48:24.449Z,2.03
2018-02-25T19:50:51.860Z,1.67
2018-02-25T19:53:19.335Z,2.27
2018-02-25T19:55:46.840Z,2.40
2018-02-25T19:58:14.303Z,2.17
2018-02-25T20:00:41.783Z,2.50
2018-02-25T20:03:09.269Z,3.13
2018-02-25T20:05:36.724Z,2.83
2018-02-25T20:08:05.003Z,3.80
2018-02-25T20:10:33.236Z,3.55
2018-02-25T20:13:00.791Z,5.70
2018-02-25T20:15:28.266Z,2.15
2018-02-25T20:17:55.730Z,2.35
2018-02-25T20:20:23.202Z,2.65
2018-02-25T20:22:51.504Z,2.30
2018-02-25T20:25:19.008Z,2.12
2018-02-25T20:27:46.482Z,2.28
2018-02-25T20:30:13.998Z,2.60
2018-02-25T20:32:41.472Z,2.00
2018-02-25T20:35:08.975Z,1.85
2018-02-25T20:37:37.247Z,2.58
2018-02-25T20:40:05.488Z,2.42
2018-02-25T20:42:33.007Z,2.12
2018-02-25T20:45:00.504Z,2.75
2018-02-25T20:47:27.972Z,2.50
2018-02-25T20:49:55.430Z,2.47
2018-02-25T20:52:22.951Z,3.60
2018-02-25T20:54:50.427Z,2.78
2018-02-25T20:57:17.903Z,2.55
2018-02-25T20:59:45.368Z,2.95
2018-02-25T21:02:12.928Z,2.90
2018-02-25T21:04:41.202Z,2.55
2018-02-25T21:07:09.447Z,2.72
2018-02-25T21:09:37.203Z,2.67
2018-02-25T21:12:04.703Z,2.83
2018-02-25T21:14:33.275Z,3.30
2018-02-25T21:17:00.751Z,2.80
2018-02-25T21:19:29.000Z,3.40
2018-02-25T21:21:56.467Z,2.90
2018-02-25T21:24:23.982Z,3.50
2018-02-25T21:26:52.188Z,3.30
2018-02-25T21:29:19.653Z,3.78
2018-02-25T21:31:47.134Z,4.12
2018-02-25T21:34:15.378Z,4.87
2018-02-25T21:36:42.879Z,4.87
2018-02-25T21:39:10.363Z,4.95
2018-02-25T21:41:37.847Z,4.25
2018-02-25T21:44:05.695Z,3.72
2018-02-25T21:46:33.165Z,4.95
2018-02-25T21:49:00.643Z,4.10
2018-02-25T21:51:28.128Z,4.12
2018-02-25T21:53:55.698Z,4.65
2018-02-25T21:56:28.802Z,4.47
2018-02-25T21:59:02.012Z,4.40
2018-02-25T22:01:35.243Z,3.95
2018-02-25T22:04:03.499Z,4.57
2018-02-25T22:06:30.970Z,3.83
2018-02-25T22:08:58.442Z,3.85
2018-02-25T22:11:26.674Z,5.25
2018-02-25T22:13:54.151Z,4.80
2018-02-25T22:16:21.620Z,4.68
2018-02-25T22:18:49.849Z,4.72
2018-02-25T22:21:17.359Z,4.70
2018-02-25T22:23:45.645Z,4.72
2018-02-25T22:26:13.082Z,4.20
2018-02-25T22:28:41.318Z,5.00
2018-02-25T22:31:08.777Z,5.15
2018-02-25T22:33:36.250Z,4.93
2018-02-25T22:36:03.718Z,4.70
2018-02-25T22:38:31.189Z,4.70
2018-02-25T22:40:59.448Z,4.53
2018-02-25T22:43:26.958Z,5.70
2018-02-25T22:45:54.423Z,5.15
2018-02-25T22:48:21.895Z,6.75
2018-02-25T22:50:49.362Z,7.90
2018-02-25T22:53:17.723Z,5.80
2018-02-25T22:55:45.205Z,5.60
2018-02-25T22:58:12.688Z,5.72
2018-02-25T23:00:40.922Z,5.72
2018-02-25T23:03:08.382Z,5.25
2018-02-25T23:05:36.992Z,4.93
2018-02-25T23:08:04.483Z,5.12
2018-02-25T23:10:32.714Z,5.07
2018-02-25T23:13:00.202Z,6.18
2018-02-25T23:15:27.683Z,5.60
2018-02-25T23:17:55.157Z,5.30
2018-02-25T23:20:22.666Z,6.35
2018-02-25T23:22:50.890Z,6.05
2018-02-25T23:25:18.433Z,5.32
2018-02-25T23:27:45.896Z,5.15
2018-02-25T23:30:13.363Z,4.87
2018-02-25T23:32:40.864Z,5.30
2018-02-25T23:35:09.086Z,4.97
2018-02-25T23:37:37.482Z,5.68
2018-02-25T23:40:04.965Z,5.18
2018-02-25T23:42:32.462Z,5.22
2018-02-25T23:45:00.646Z,5.68
2018-02-25T23:47:28.132Z,6.10
2018-02-25T23:49:56.387Z,5.68
2018-02-25T23:52:23.842Z,5.72
2018-02-25T23:54:51.327Z,4.95
2018-02-25T23:57:18.798Z,6.10
2018-02-25T23:59:46.263Z,5.85
